Time;durP1;ratioP1;P1;durP2;ratioP2;P2;SDS_P1;SDS_P2;PMS_P1;PMS_P2;Temp;Humidity;BMP_temperature;BMP_pressure;BME280_temperature;BME280_humidity;BME280_pressure;Samples;Min_cycle;Max_cycle;Signal;HPM_P1;HPM_P2
2021/01/20 00:01:42;;;;;;;3.45;1.67;;;20.60;42.10;;;;;;4953100;29;20027;-61
2021/01/20 00:04:07;;;;;;;3.17;1.75;;;20.60;42.10;;;;;;4953357;29;20059;-61
2021/01/20 00:06:33;;;;;;;1.85;1.50;;;20.60;42.10;;;;;;4944546;29;20027;-61
2021/01/20 00:08:59;;;;;;;2.53;1.38;;;20.60;42.10;;;;;;4953511;29;20039;-61
2021/01/20 00:11:25;;;;;;;2.25;1.30;;;20.50;42.10;;;;;;4952685;28;20081;-62
2021/01/20 00:13:53;;;;;;;2.25;1.35;;;20.60;42.10;;;;;;4953107;28;20039;-61
2021/01/20 00:16:19;;;;;;;2.42;1.30;;;20.60;42.10;;;;;;4961078;28;20051;-61
2021/01/20 00:18:45;;;;;;;3.45;1.30;;;20.60;42.10;;;;;;4952614;29;20043;-61
2021/01/20 00:21:11;;;;;;;2.13;1.27;;;20.50;42.00;;;;;;4953158;29;20547;-61
2021/01/20 00:23:36;;;;;;;2.10;1.13;;;20.50;42.70;;;;;;4952158;29;20079;-61
2021/01/20 00:26:02;;;;;;;1.70;1.20;;;20.50;42.00;;;;;;4953069;29;20027;-61
2021/01/20 00:28:27;;;;;;;2.30;1.73;;;20.50;41.90;;;;;;4958348;28;20031;-62
2021/01/20 00:30:56;;;;;;;2.60;1.73;;;20.50;41.90;;;;;;4952656;29;20027;-61
2021/01/20 00:33:25;;;;;;;2.90;1.52;;;20.50;41.80;;;;;;4952618;28;20444;-62
2021/01/20 00:35:50;;;;;;;2.25;1.23;;;20.50;41.80;;;;;;4952345;28;20465;-61
2021/01/20 00:38:16;;;;;;;1.92;1.30;;;20.60;41.90;;;;;;4953449;29;20042;-61
2021/01/20 00:40:42;;;;;;;2.95;1.50;;;20.60;41.80;;;;;;4951768;29;20035;-61
2021/01/20 00:43:07;;;;;;;1.85;1.30;;;20.60;42.50;;;;;;4952862;29;20093;-62
2021/01/20 00:45:33;;;;;;;2.05;1.15;;;20.50;41.80;;;;;;4952162;29;20039;-61
2021/01/20 00:47:59;;;;;;;2.45;1.25;;;20.50;41.80;;;;;;4958153;28;20114;-61
2021/01/20 00:50:24;;;;;;;3.33;1.73;;;20.50;41.70;;;;;;4952164;29;20039;-62
2021/01/20 00:52:50;;;;;;;4.22;1.52;;;20.50;41.70;;;;;;4952536;28;20031;-62
2021/01/20 00:55:16;;;;;;;2.28;1.10;;;20.50;41.80;;;;;;4944695;29;20385;-62
2021/01/20 00:57:43;;;;;;;1.58;0.93;;;20.50;41.70;;;;;;4952426;28;20027;-61
2021/01/20 01:00:10;;;;;;;2.95;1.02;;;20.50;41.70;;;;;;4950473;28;20066;-61
2021/01/20 01:02:36;;;;;;;1.70;1.23;;;20.50;41.70;;;;;;4951122;28;20039;-62
2021/01/20 01:05:03;;;;;;;2.42;1.10;;;20.50;41.60;;;;;;4952783;28;20486;-61
2021/01/20 01:07:29;;;;;;;3.40;1.38;;;20.50;41.70;;;;;;4951604;29;20031;-61
2021/01/20 01:09:55;;;;;;;2.95;1.33;;;20.50;41.60;;;;;;4953135;29;20036;-61
2021/01/20 01:12:21;;;;;;;1.45;1.10;;;20.50;41.60;;;;;;4951939;28;20054;-61
2021/01/20 01:14:46;;;;;;;2.17;1.33;;;20.50;42.20;;;;;;4951917;28;20030;-61
2021/01/20 01:17:12;;;;;;;1.63;0.90;;;20.60;41.60;;;;;;4951912;28;20511;-62
2021/01/20 01:19:37;;;;;;;1.70;1.00;;;20.60;41.60;;;;;;4950738;28;20031;-61
2021/01/20 01:22:03;;;;;;;2.22;1.30;;;20.60;41.60;;;;;;4952423;28;20087;-61
2021/01/20 01:24:29;;;;;;;1.42;0.90;;;20.60;41.50;;;;;;4952064;28;20098;-61
2021/01/20 01:26:54;;;;;;;1.48;1.00;;;20.50;41.40;;;;;;4950014;28;20059;-61
2021/01/20 01:29:20;;;;;;;2.10;1.40;;;20.60;41.50;;;;;;4948821;28;20114;-61
2021/01/20 01:31:46;;;;;;;3.30;1.50;;;20.60;41.50;;;;;;4952135;29;20027;-61
2021/01/20 01:34:12;;;;;;;1.75;1.02;;;20.60;41.50;;;;;;4950504;28;20035;-61
2021/01/20 01:36:38;;;;;;;1.42;1.00;;;20.60;41.50;;;;;;4951666;28;20044;-61
2021/01/20 01:39:04;;;;;;;1.67;1.20;;;20.60;41.40;;;;;;4952281;28;20051;-61
2021/01/20 01:41:29;;;;;;;2.33;1.25;;;20.60;41.40;;;;;;4949208;28;20878;-63
2021/01/20 01:43:55;;;;;;;1.55;0.98;;;20.60;41.40;;;;;;4952540;29;20027;-61
2021/01/20 01:46:21;;;;;;;1.35;0.95;;;20.60;41.40;;;;;;4952734;29;20388;-61
2021/01/20 01:48:46;;;;;;;3.88;1.17;;;20.60;41.50;;;;;;4955523;28;20113;-61
2021/01/20 01:51:12;;;;;;;1.13;0.82;;;20.60;41.80;;;;;;4953721;28;20031;-61
2021/01/20 01:53:38;;;;;;;1.40;0.82;;;20.60;41.50;;;;;;4951334;29;20029;-61
2021/01/20 01:56:04;;;;;;;1.85;1.00;;;20.60;41.50;;;;;;4952039;29;20047;-62
2021/01/20 01:58:30;;;;;;;2.38;1.50;;;20.60;41.40;;;;;;4953102;28;20045;-62
2021/01/20 02:00:57;;;;;;;2.03;1.23;;;20.60;41.50;;;;;;4952576;28;20118;-61
2021/01/20 02:03:22;;;;;;;2.05;1.38;;;20.60;41.50;;;;;;4956008;28;20101;-60
2021/01/20 02:05:48;;;;;;;1.23;0.90;;;20.60;41.40;;;;;;4948963;28;20035;-61
2021/01/20 02:08:14;;;;;;;1.63;1.02;;;20.60;41.40;;;;;;4951816;28;20102;-61
2021/01/20 02:10:40;;;;;;;1.42;0.98;;;20.60;41.40;;;;;;4951687;28;20068;-61
2021/01/20 02:13:40;;;;;;;2.13;1.27;;;20.60;41.40;;;;;;4955260;28;20114;-61
2021/01/20 02:16:19;;;;;;;2.03;0.95;;;20.60;41.40;;;;;;4955691;28;20366;-61
2021/01/20 02:18:50;;;;;;;2.30;1.08;;;20.60;41.40;;;;;;4954789;28;20126;-61
2021/01/20 02:21:34;;;;;;;1.63;1.02;;;20.60;41.40;;;;;;4955331;28;20086;-61
2021/01/20 02:24:07;;;;;;;2.50;1.58;;;20.60;41.40;;;;;;4955032;28;20047;-61
2021/01/20 02:26:51;;;;;;;1.77;1.00;;;20.60;41.40;;;;;;4955495;28;20023;-61
2021/01/20 02:29:40;;;;;;;1.10;0.80;;;20.60;41.40;;;;;;4948344;29;20106;-61
2021/01/20 02:32:07;;;;;;;1.85;1.00;;;20.60;41.30;;;;;;4955530;29;20037;-61
2021/01/20 02:34:35;;;;;;;2.10;1.05;;;20.60;41.40;;;;;;4954222;28;20377;-62
2021/01/20 02:37:02;;;;;;;1.77;1.23;;;20.60;41.30;;;;;;4955577;28;20040;-61
2021/01/20 02:39:30;;;;;;;1.42;0.82;;;20.60;41.40;;;;;;4954232;28;20067;-62
2021/01/20 02:42:06;;;;;;;1.73;1.20;;;20.60;41.30;;;;;;4955152;28;20041;-61
2021/01/20 02:44:39;;;;;;;1.42;0.90;;;20.60;41.30;;;;;;4953458;28;20854;-61
2021/01/20 02:47:07;;;;;;;1.20;0.93;;;20.60;41.30;;;;;;4953837;28;20556;-61
2021/01/20 02:49:34;;;;;;;2.47;0.98;;;20.60;41.30;;;;;;4950275;28;20039;-61
2021/01/20 02:52:39;;;;;;;1.15;0.90;;;20.60;41.30;;;;;;4954856;28;20122;-61
2021/01/20 02:55:08;;;;;;;2.25;1.00;;;20.60;41.30;;;;;;4954786;29;20118;-61
2021/01/20 02:57:36;;;;;;;2.75;0.90;;;20.60;41.30;;;;;;4951338;28;20539;-62
2021/01/20 03:00:05;;;;;;;1.90;1.10;;;20.60;41.30;;;;;;4952304;28;20043;-62
2021/01/20 03:02:31;;;;;;;1.75;0.70;;;20.60;41.30;;;;;;4952811;28;20439;-62
2021/01/20 03:04:59;;;;;;;1.40;1.00;;;20.60;41.30;;;;;;4955032;29;20027;-61
2021/01/20 03:07:26;;;;;;;1.83;0.85;;;20.60;41.30;;;;;;4954321;28;20041;-62
2021/01/20 03:09:54;;;;;;;1.00;0.80;;;20.60;41.30;;;;;;4953999;29;20094;-62
2021/01/20 03:12:30;;;;;;;1.20;1.00;;;20.60;41.90;;;;;;4954282;28;20495;-61
2021/01/20 03:14:57;;;;;;;1.70;0.80;;;20.60;41.30;;;;;;4946386;28;20042;-62
2021/01/20 03:17:25;;;;;;;1.27;0.80;;;20.50;41.20;;;;;;4954516;28;20027;-61
2021/01/20 03:19:51;;;;;;;1.63;0.90;;;20.60;41.30;;;;;;4953804;28;20488;-62
2021/01/20 03:22:16;;;;;;;2.15;0.70;;;20.60;41.30;;;;;;4954663;28;20035;-61
2021/01/20 03:24:43;;;;;;;3.15;0.75;;;20.60;41.30;;;;;;4953685;29;20051;-61
2021/01/20 03:27:08;;;;;;;1.40;0.90;;;20.60;41.20;;;;;;4956590;28;20019;-61
2021/01/20 03:29:34;;;;;;;1.40;0.85;;;20.60;41.30;;;;;;4953805;29;20035;-62
2021/01/20 03:32:00;;;;;;;0.90;0.70;;;20.60;41.20;;;;;;4953774;29;20039;-61
2021/01/20 03:34:25;;;;;;;2.40;0.85;;;20.60;41.20;;;;;;4954250;29;20110;-61
2021/01/20 03:36:51;;;;;;;0.95;0.63;;;20.60;41.40;;;;;;4953434;29;20469;-61
2021/01/20 03:39:16;;;;;;;0.80;0.70;;;20.60;41.20;;;;;;4953996;29;20077;-61
2021/01/20 03:41:42;;;;;;;1.60;1.02;;;20.60;41.20;;;;;;4952961;28;20038;-61
2021/01/20 03:44:07;;;;;;;1.75;0.88;;;20.60;41.20;;;;;;4953033;29;20035;-61
2021/01/20 03:46:33;;;;;;;0.77;0.60;;;20.60;41.30;;;;;;4953165;29;20059;-62
2021/01/20 03:48:59;;;;;;;1.05;0.65;;;20.60;41.20;;;;;;4957006;28;20069;-61
2021/01/20 03:51:28;;;;;;;0.90;0.70;;;20.60;41.20;;;;;;4957293;28;20465;-62
2021/01/20 03:53:54;;;;;;;1.02;0.70;;;20.60;41.20;;;;;;4945914;28;20038;-61
2021/01/20 03:56:19;;;;;;;1.15;0.77;;;20.60;41.20;;;;;;4954117;28;20465;-61
2021/01/20 03:58:45;;;;;;;1.25;0.70;;;20.60;41.20;;;;;;4954184;28;20031;-61
2021/01/20 04:01:11;;;;;;;1.25;0.75;;;20.60;41.30;;;;;;4948193;28;20070;-62
2021/01/20 04:03:36;;;;;;;2.58;0.95;;;20.60;41.20;;;;;;4952933;28;20031;-61
2021/01/20 04:06:04;;;;;;;0.80;0.52;;;20.60;41.20;;;;;;4952416;29;20054;-62
2021/01/20 04:08:29;;;;;;;1.20;0.70;;;20.60;41.20;;;;;;4952577;28;20035;-62
2021/01/20 04:10:55;;;;;;;1.00;0.70;;;20.60;41.20;;;;;;4953543;28;20039;-61
2021/01/20 04:13:23;;;;;;;1.23;0.70;;;20.60;41.20;;;;;;4953345;28;20043;-61
2021/01/20 04:15:49;;;;;;;1.60;0.80;;;20.60;41.20;;;;;;4945187;28;20030;-61
2021/01/20 04:18:15;;;;;;;1.23;0.90;;;20.60;41.20;;;;;;4952990;28;20027;-61
2021/01/20 04:20:40;;;;;;;1.02;0.77;;;20.60;41.20;;;;;;4952618;29;20118;-61
2021/01/20 04:23:06;;;;;;;3.08;0.93;;;20.60;41.20;;;;;;4953221;29;20054;-61
2021/01/20 04:25:32;;;;;;;1.67;0.80;;;20.60;41.20;;;;;;4952827;29;20031;-62
2021/01/20 04:27:57;;;;;;;1.13;0.75;;;20.60;41.20;;;;;;4948021;28;20031;-62
2021/01/20 04:30:23;;;;;;;1.13;0.90;;;20.60;41.20;;;;;;4953030;28;20453;-62
2021/01/20 04:32:49;;;;;;;2.40;0.88;;;20.60;41.20;;;;;;4981209;28;20027;-62
2021/01/20 04:35:14;;;;;;;1.23;0.70;;;20.60;41.20;;;;;;4951141;28;20366;-61
2021/01/20 04:37:40;;;;;;;1.00;0.70;;;20.60;41.20;;;;;;4952026;29;20033;-61
2021/01/20 04:40:06;;;;;;;2.40;1.02;;;20.60;41.10;;;;;;4953325;29;20099;-62
2021/01/20 04:42:33;;;;;;;1.00;0.70;;;20.60;41.10;;;;;;4959592;28;20424;-62
2021/01/20 04:44:59;;;;;;;0.73;0.52;;;20.60;41.10;;;;;;4953250;28;20024;-61
2021/01/20 04:47:26;;;;;;;0.88;0.68;;;20.60;41.10;;;;;;4944451;28;20035;-61
2021/01/20 04:49:53;;;;;;;1.10;0.60;;;20.60;41.10;;;;;;4952239;28;20054;-61
2021/01/20 04:52:21;;;;;;;1.10;0.60;;;20.60;41.10;;;;;;4952842;28;20039;-61
2021/01/20 04:54:49;;;;;;;2.30;0.82;;;20.60;41.10;;;;;;4952281;28;20031;-61
2021/01/20 04:57:15;;;;;;;1.00;0.70;;;20.60;41.10;;;;;;4957768;28;20101;-61
2021/01/20 04:59:42;;;;;;;1.05;0.70;;;20.60;41.10;;;;;;4954009;28;20461;-62
2021/01/20 05:02:11;;;;;;;0.85;0.65;;;20.60;41.10;;;;;;4953226;28;20028;-61
2021/01/20 05:04:39;;;;;;;0.75;0.52;;;20.60;41.10;;;;;;4945490;28;20107;-62
2021/01/20 05:07:06;;;;;;;2.15;0.75;;;20.60;41.10;;;;;;4951869;29;20034;-61
2021/01/20 05:09:32;;;;;;;1.83;0.70;;;20.60;41.10;;;;;;4952694;29;20038;-63
2021/01/20 05:11:57;;;;;;;0.77;0.63;;;20.60;41.00;;;;;;4952528;28;20033;-62
2021/01/20 05:14:23;;;;;;;1.00;0.50;;;20.60;41.10;;;;;;4953399;28;20039;-61
2021/01/20 05:16:52;;;;;;;1.02;0.55;;;20.60;41.00;;;;;;4951626;29;20125;-62
2021/01/20 05:19:38;;;;;;;0.70;0.60;;;20.60;41.00;;;;;;4951918;28;20489;-62
2021/01/20 05:22:09;;;;;;;0.80;0.70;;;20.60;41.00;;;;;;4952240;28;20570;-61
2021/01/20 05:24:36;;;;;;;1.02;0.63;;;20.60;41.00;;;;;;4952581;28;20126;-62
2021/01/20 05:27:02;;;;;;;0.80;0.50;;;20.70;41.10;;;;;;4954867;28;20038;-63
2021/01/20 05:29:29;;;;;;;0.88;0.60;;;20.60;41.00;;;;;;4948753;28;20085;-62
2021/01/20 05:31:54;;;;;;;0.70;0.60;;;20.60;41.00;;;;;;4952137;28;20477;-62
2021/01/20 05:34:23;;;;;;;1.45;0.80;;;20.70;41.00;;;;;;4953154;29;20042;-62
2021/01/20 05:37:05;;;;;;;0.95;0.70;;;20.70;41.00;;;;;;4951815;29;20059;-61
2021/01/20 05:39:31;;;;;;;2.03;0.75;;;20.70;41.00;;;;;;4951723;29;20035;-63
2021/01/20 05:42:09;;;;;;;2.00;0.50;;;20.70;41.00;;;;;;4952794;28;20031;-61
2021/01/20 05:44:35;;;;;;;1.05;0.63;;;20.70;41.00;;;;;;4950227;28;20028;-60
2021/01/20 05:47:12;;;;;;;1.30;0.57;;;20.70;41.00;;;;;;4954951;28;20050;-61
2021/01/20 05:49:38;;;;;;;0.90;0.60;;;20.70;41.00;;;;;;4952129;28;20437;-61
2021/01/20 05:52:13;;;;;;;0.95;0.60;;;20.70;41.00;;;;;;4956514;28;20031;-65
2021/01/20 05:54:39;;;;;;;1.30;0.52;;;20.60;40.90;;;;;;4955356;28;20034;-64
2021/01/20 05:57:28;;;;;;;0.65;0.50;;;20.70;41.00;;;;;;4959655;28;20097;-62
2021/01/20 05:59:54;;;;;;;1.15;0.80;;;20.70;40.90;;;;;;4949511;29;20050;-61
2021/01/20 06:02:20;;;;;;;0.50;0.47;;;20.70;41.00;;;;;;4956277;28;20036;-61
2021/01/20 06:04:46;;;;;;;0.65;0.55;;;20.70;40.90;;;;;;4955433;28;20077;-63
2021/01/20 06:07:13;;;;;;;1.75;0.73;;;20.70;40.90;;;;;;4955677;28;20035;-61
2021/01/20 06:09:41;;;;;;;0.93;0.60;;;20.70;40.90;;;;;;4944325;29;20035;-60
2021/01/20 06:12:08;;;;;;;0.85;0.60;;;20.60;40.90;;;;;;4947726;28;20035;-60
2021/01/20 06:14:34;;;;;;;1.35;0.55;;;20.70;40.90;;;;;;4953517;28;20063;-60
2021/01/20 06:17:29;;;;;;;0.60;0.50;;;20.70;40.80;;;;;;4956282;28;20027;-61
2021/01/20 06:20:01;;;;;;;0.95;0.60;;;20.70;40.90;;;;;;4950803;29;20059;-61
2021/01/20 06:22:27;;;;;;;;;;;20.70;40.90;;;;;;4953756;28;20034;-59
2021/01/20 06:24:57;;;;;;;0.85;0.50;;;20.70;40.90;;;;;;4948927;29;19914;-60
2021/01/20 06:27:46;;;;;;;0.70;0.40;;;20.70;40.90;;;;;;4957751;28;20027;-61
2021/01/20 06:30:19;;;;;;;1.52;0.60;;;20.70;40.80;;;;;;4948226;28;20122;-62
2021/01/20 06:32:48;;;;;;;1.20;0.65;;;20.70;40.80;;;;;;4954642;28;20100;-61
2021/01/20 06:35:16;;;;;;;0.95;0.70;;;20.70;40.80;;;;;;4954661;28;20035;-61
2021/01/20 06:37:43;;;;;;;0.68;0.50;;;20.70;40.80;;;;;;4954562;28;20114;-62
2021/01/20 06:40:20;;;;;;;2.08;0.60;;;20.70;40.80;;;;;;4954803;28;20102;-61
2021/01/20 06:42:46;;;;;;;1.27;0.73;;;20.70;40.80;;;;;;4954048;28;20447;-61
2021/01/20 06:45:17;;;;;;;1.00;0.50;;;20.70;40.80;;;;;;4955468;28;20042;-63
2021/01/20 06:48:01;;;;;;;2.03;0.70;;;20.70;40.80;;;;;;4954516;28;20023;-62
2021/01/20 06:50:48;;;;;;;0.90;0.60;;;20.70;40.80;;;;;;4955460;28;20047;-61
2021/01/20 06:53:13;;;;;;;0.82;0.70;;;20.70;40.80;;;;;;4948073;28;20035;-62
2021/01/20 06:55:40;;;;;;;0.93;0.60;;;20.70;40.80;;;;;;4947675;29;20034;-62
2021/01/20 06:58:24;;;;;;;1.20;0.90;;;20.60;40.80;;;;;;4948003;28;20031;-62
2021/01/20 07:00:58;;;;;;;1.23;0.60;;;20.70;40.80;;;;;;4950412;29;20748;-62
2021/01/20 07:03:43;;;;;;;1.30;0.60;;;20.70;40.80;;;;;;4955125;28;20035;-62
2021/01/20 07:06:37;;;;;;;0.77;0.63;;;20.70;40.80;;;;;;4954606;28;20081;-62
2021/01/20 07:09:11;;;;;;;3.15;0.60;;;20.70;40.80;;;;;;4954163;28;20039;-62
2021/01/20 07:11:55;;;;;;;0.82;0.47;;;20.70;40.90;;;;;;4954069;28;20046;-62
2021/01/20 07:14:33;;;;;;;7.30;0.93;;;20.70;40.80;;;;;;4954234;29;20039;-62
2021/01/20 07:17:00;;;;;;;0.85;0.63;;;20.70;40.80;;;;;;4955104;28;20130;-61
2021/01/20 07:19:26;;;;;;;0.73;0.60;;;20.70;40.80;;;;;;4954250;28;20043;-62
2021/01/20 07:21:53;;;;;;;1.70;0.50;;;20.70;40.80;;;;;;4954058;28;20039;-62
2021/01/20 07:24:19;;;;;;;0.85;0.70;;;20.70;40.80;;;;;;4954159;28;20065;-62
2021/01/20 07:26:46;;;;;;;1.83;0.60;;;20.70;40.80;;;;;;4954002;28;20093;-62
2021/01/20 07:29:17;;;;;;;3.13;0.60;;;20.70;40.90;;;;;;4956882;28;20043;-62
2021/01/20 07:31:50;;;;;;;0.75;0.55;;;20.70;40.80;;;;;;4953623;28;20070;-62
2021/01/20 07:34:17;;;;;;;2.15;0.73;;;20.70;40.80;;;;;;4954132;28;20027;-62
2021/01/20 07:36:44;;;;;;;1.02;0.70;;;20.70;40.80;;;;;;4946031;29;20027;-62
2021/01/20 07:39:20;;;;;;;2.17;0.68;;;20.70;40.80;;;;;;4953861;28;20039;-62
2021/01/20 07:41:53;;;;;;;1.08;0.70;;;20.70;40.80;;;;;;4953114;28;20031;-62
2021/01/20 07:44:19;;;;;;;0.90;0.50;;;20.70;40.80;;;;;;4954315;28;20500;-62
2021/01/20 07:46:45;;;;;;;1.13;0.50;;;20.70;40.80;;;;;;4953344;28;20027;-62
2021/01/20 07:49:14;;;;;;;1.08;0.63;;;20.70;40.80;;;;;;4954124;28;20041;-62
2021/01/20 07:51:39;;;;;;;0.85;0.60;;;20.70;40.80;;;;;;4951588;28;20028;-61
2021/01/20 07:54:06;;;;;;;1.63;0.60;;;20.70;40.80;;;;;;4953876;28;20106;-62
2021/01/20 07:56:34;;;;;;;1.13;0.60;;;20.70;40.70;;;;;;4953631;28;20058;-62
2021/01/20 07:59:19;;;;;;;0.80;0.40;;;20.70;41.10;;;;;;4956363;28;20039;-60
2021/01/20 08:01:46;;;;;;;0.90;0.60;;;20.70;40.80;;;;;;4952801;28;20389;-62
2021/01/20 08:04:24;;;;;;;1.05;0.52;;;20.80;40.80;;;;;;4952237;29;20063;-60
2021/01/20 08:06:51;;;;;;;0.80;0.50;;;20.80;40.80;;;;;;4933574;29;20028;-61
2021/01/20 08:09:17;;;;;;;1.70;0.50;;;20.90;40.70;;;;;;4934138;29;20031;-60
2021/01/20 08:11:46;;;;;;;1.00;0.60;;;20.90;40.50;;;;;;4935229;29;20043;-62
2021/01/20 08:14:12;;;;;;;3.30;0.70;;;21.00;40.50;;;;;;4953521;28;20432;-59
2021/01/20 08:16:38;;;;;;;0.60;0.50;;;21.00;40.40;;;;;;4952835;28;20133;-61
2021/01/20 08:19:05;;;;;;;1.40;0.80;;;21.00;40.30;;;;;;4952881;28;20051;-60
2021/01/20 08:21:36;;;;;;;1.88;0.70;;;21.00;40.30;;;;;;4953144;28;20038;-61
2021/01/20 08:24:06;;;;;;;1.00;0.75;;;21.10;40.30;;;;;;4952808;28;20452;-60
2021/01/20 08:26:34;;;;;;;1.10;0.60;;;21.10;40.20;;;;;;4952932;28;20031;-61
2021/01/20 08:29:01;;;;;;;1.20;0.75;;;21.10;40.20;;;;;;4947814;28;20469;-61
2021/01/20 08:31:27;;;;;;;1.17;0.73;;;21.10;40.20;;;;;;4952039;29;20042;-54
2021/01/20 08:34:22;;;;;;;2.35;0.68;;;21.10;40.40;;;;;;4952583;28;20098;-53
2021/01/20 08:37:18;;;;;;;3.53;0.70;;;21.10;40.60;;;;;;4951633;28;20086;-50
2021/01/20 08:39:55;;;;;;;3.38;0.95;;;21.20;41.40;;;;;;4949629;28;20043;-64
2021/01/20 08:42:37;;;;;;;3.38;1.13;;;21.20;41.20;;;;;;4952864;28;20039;-64
2021/01/20 08:45:21;;;;;;;3.00;1.00;;;21.20;39.50;;;;;;4946448;28;20059;-62
2021/01/20 08:48:00;;;;;;;1.23;0.75;;;21.10;39.50;;;;;;4945744;28;20030;-60
2021/01/20 08:50:30;;;;;;;3.17;0.95;;;21.20;40.00;;;;;;4951278;28;20050;-68
2021/01/20 08:53:01;;;;;;;4.88;1.10;;;21.20;40.00;;;;;;4951239;28;20963;-68
2021/01/20 08:55:38;;;;;;;3.00;0.82;;;21.20;40.10;;;;;;4950609;29;20074;-68
2021/01/20 08:58:34;;;;;;;5.20;1.00;;;21.30;40.10;;;;;;4963377;28;20037;-72
2021/01/20 09:01:09;;;;;;;3.30;1.13;;;21.40;40.30;;;;;;4942559;28;20054;-69
2021/01/20 09:03:36;;;;;;;2.15;0.73;;;21.40;40.20;;;;;;4951100;28;20102;-64
2021/01/20 09:06:13;;;;;;;4.32;0.75;;;21.40;40.50;;;;;;4946926;29;20119;-66
2021/01/20 09:08:38;;;;;;;1.83;0.90;;;21.40;40.60;;;;;;4951847;28;20032;-63
2021/01/20 09:11:05;;;;;;;6.15;1.10;;;21.40;40.70;;;;;;4952699;29;20037;-64
2021/01/20 09:13:31;;;;;;;3.63;1.05;;;21.40;40.60;;;;;;4951703;28;20034;-60
2021/01/20 09:15:56;;;;;;;2.75;1.40;;;21.50;40.80;;;;;;4957645;28;20035;-62
2021/01/20 09:18:24;;;;;;;4.55;0.93;;;21.50;40.70;;;;;;4951410;28;20392;-62
2021/01/20 09:20:51;;;;;;;2.25;1.13;;;21.50;40.70;;;;;;4952121;28;19922;-54
2021/01/20 09:23:17;;;;;;;4.63;1.48;;;21.30;37.50;;;;;;4950445;28;20047;-53
2021/01/20 09:25:43;;;;;;;2.00;1.27;;;21.20;38.50;;;;;;4955566;28;20533;-53
2021/01/20 09:28:08;;;;;;;2.60;1.20;;;21.10;38.60;;;;;;4956928;28;20039;-54
2021/01/20 09:30:35;;;;;;;2.40;1.35;;;21.10;39.00;;;;;;4955845;28;20031;-56
2021/01/20 09:33:01;;;;;;;3.72;1.30;;;21.10;39.00;;;;;;4954918;29;20162;-52
2021/01/20 09:35:27;;;;;;;3.10;1.25;;;21.10;38.70;;;;;;4956135;29;20472;-54
2021/01/20 09:37:53;;;;;;;5.00;1.50;;;21.20;39.30;;;;;;4954698;28;20061;-55
2021/01/20 09:40:21;;;;;;;2.35;0.90;;;21.20;39.40;;;;;;4956218;28;20078;-54
2021/01/20 09:42:48;;;;;;;3.08;1.30;;;21.20;39.30;;;;;;4948589;28;20042;-52
2021/01/20 09:45:15;;;;;;;3.45;1.10;;;21.20;39.40;;;;;;4945727;28;20027;-57
2021/01/20 09:47:45;;;;;;;3.13;1.50;;;21.20;39.40;;;;;;4954242;28;20027;-51
2021/01/20 09:50:15;;;;;;;1.70;1.33;;;20.90;36.50;;;;;;4955923;28;20039;-53
2021/01/20 09:52:43;;;;;;;2.15;1.20;;;20.80;36.20;;;;;;4984780;28;20388;-54
2021/01/20 09:55:09;;;;;;;1.75;1.10;;;20.70;37.30;;;;;;4955202;29;20500;-54
2021/01/20 09:57:35;;;;;;;5.22;1.20;;;20.70;37.80;;;;;;4959334;28;20058;-56
2021/01/20 10:00:02;;;;;;;4.05;1.40;;;20.70;37.90;;;;;;4953851;29;20473;-51
2021/01/20 10:02:28;;;;;;;3.10;1.30;;;20.80;38.20;;;;;;4954235;28;20027;-52
2021/01/20 10:04:54;;;;;;;5.22;1.33;;;20.80;38.10;;;;;;4954952;29;20038;-53
2021/01/20 10:07:20;;;;;;;2.45;1.48;;;20.90;38.30;;;;;;4955941;28;20474;-50
2021/01/20 10:09:46;;;;;;;9.25;1.10;;;20.90;38.30;;;;;;4958922;28;20082;-49
2021/01/20 10:12:14;;;;;;;2.63;1.60;;;20.90;38.00;;;;;;4955541;28;20126;-51
2021/01/20 10:14:40;;;;;;;2.28;1.00;;;20.90;38.10;;;;;;4956699;28;20023;-56
2021/01/20 10:17:06;;;;;;;4.60;1.13;;;20.90;38.30;;;;;;4954748;28;20019;-50
2021/01/20 10:19:32;;;;;;;5.35;1.25;;;20.90;38.60;;;;;;4955800;29;20105;-53
2021/01/20 10:21:57;;;;;;;3.03;1.27;;;20.90;38.80;;;;;;4949592;28;20026;-51
2021/01/20 10:24:23;;;;;;;4.93;1.30;;;21.00;39.30;;;;;;4954941;29;20141;-49
2021/01/20 10:26:49;;;;;;;2.40;1.23;;;21.00;39.30;;;;;;4954376;28;20089;-49
2021/01/20 10:29:14;;;;;;;5.00;1.40;;;21.00;39.50;;;;;;4955835;28;20104;-51
2021/01/20 10:31:41;;;;;;;4.13;1.13;;;21.00;39.60;;;;;;4953377;28;20056;-54
2021/01/20 10:34:08;;;;;;;2.35;0.98;;;21.00;39.60;;;;;;4955388;28;20031;-54
2021/01/20 10:36:34;;;;;;;2.30;1.17;;;21.00;39.90;;;;;;4955733;28;20046;-53
2021/01/20 10:39:01;;;;;;;4.25;2.00;;;21.10;39.70;;;;;;4953700;28;20043;-53
2021/01/20 10:41:27;;;;;;;3.25;1.25;;;21.00;39.80;;;;;;4955255;28;20046;-51
2021/01/20 10:43:54;;;;;;;7.20;2.28;;;21.00;39.90;;;;;;4954660;29;20377;-51
2021/01/20 10:46:25;;;;;;;3.40;1.23;;;21.00;40.00;;;;;;4960986;28;20110;-52
2021/01/20 10:48:57;;;;;;;1.90;1.30;;;21.00;40.40;;;;;;4953872;28;20186;-55
2021/01/20 10:51:25;;;;;;;4.53;1.27;;;21.10;40.60;;;;;;4954869;28;20070;-54
2021/01/20 10:53:51;;;;;;;4.63;1.20;;;21.10;40.60;;;;;;4954303;28;20035;-50
2021/01/20 10:56:17;;;;;;;6.00;1.13;;;21.10;40.70;;;;;;4954747;28;20039;-56
2021/01/20 10:58:43;;;;;;;4.85;1.38;;;21.10;40.70;;;;;;4948231;28;20035;-52
2021/01/20 11:01:10;;;;;;;2.75;1.55;;;21.10;40.80;;;;;;4953957;28;20540;-54
2021/01/20 11:03:39;;;;;;;1.92;1.10;;;21.10;40.80;;;;;;4954056;28;20139;-54
2021/01/20 11:06:05;;;;;;;1.65;0.85;;;21.10;40.90;;;;;;4953572;29;20039;-53
2021/01/20 11:08:30;;;;;;;4.15;1.15;;;21.00;40.80;;;;;;4954454;28;20035;-53
2021/01/20 11:10:56;;;;;;;4.13;1.60;;;21.10;41.00;;;;;;4953599;29;20106;-47
2021/01/20 11:13:22;;;;;;;5.28;1.55;;;21.00;40.90;;;;;;4954282;28;20058;-51
2021/01/20 11:15:47;;;;;;;3.85;1.20;;;21.00;41.00;;;;;;4957620;28;20050;-52
2021/01/20 11:18:18;;;;;;;3.30;1.25;;;21.00;41.10;;;;;;4954060;28;20469;-47
2021/01/20 11:20:45;;;;;;;5.22;1.27;;;21.00;41.10;;;;;;4953654;28;20040;-46
2021/01/20 11:23:12;;;;;;;4.63;1.25;;;21.00;41.20;;;;;;4953729;28;20436;-52
2021/01/20 11:25:50;;;;;;;2.08;1.10;;;21.00;41.20;;;;;;4953139;28;20097;-53
2021/01/20 11:28:17;;;;;;;4.65;1.25;;;21.00;41.10;;;;;;4957819;28;20028;-45
2021/01/20 11:30:42;;;;;;;5.03;1.63;;;21.00;41.10;;;;;;4953360;28;20119;-49
2021/01/20 11:33:09;;;;;;;3.45;1.10;;;20.90;41.10;;;;;;4953689;29;20102;-50
2021/01/20 11:35:35;;;;;;;5.80;1.23;;;20.90;41.00;;;;;;4954200;28;20698;-50
2021/01/20 11:38:01;;;;;;;4.72;1.10;;;20.90;41.20;;;;;;4953630;28;20035;-45
2021/01/20 11:40:28;;;;;;;4.43;1.23;;;21.00;41.80;;;;;;4953007;29;20400;-51
2021/01/20 11:42:57;;;;;;;5.18;1.20;;;21.10;41.30;;;;;;4953387;28;20065;-45
2021/01/20 11:45:37;;;;;;;8.80;1.30;;;21.00;40.80;;;;;;4948781;28;20175;-47
2021/01/20 11:48:05;;;;;;;7.55;1.45;;;20.90;41.10;;;;;;4954838;28;20035;-50
2021/01/20 11:50:32;;;;;;;8.23;1.80;;;20.90;40.60;;;;;;4952689;28;20059;-50
2021/01/20 11:52:57;;;;;;;5.28;1.75;;;20.80;40.10;;;;;;4953160;28;20055;-51
2021/01/20 11:55:24;;;;;;;2.30;1.50;;;20.80;40.20;;;;;;4953944;29;20035;-50
2021/01/20 11:57:50;;;;;;;7.47;1.40;;;20.80;39.80;;;;;;4956606;28;20039;-48
2021/01/20 12:00:17;;;;;;;5.43;1.80;;;20.80;39.70;;;;;;4952053;29;20035;-51
2021/01/20 12:02:43;;;;;;;13.13;2.25;;;20.60;35.50;;;;;;4947879;28;20078;-55
2021/01/20 12:05:11;;;;;;;6.55;2.38;;;20.30;35.40;;;;;;4953272;28;20469;-49
2021/01/20 12:07:41;;;;;;;5.15;1.70;;;20.40;37.50;;;;;;4953360;28;20060;-52
2021/01/20 12:10:08;;;;;;;4.82;1.48;;;20.50;38.20;;;;;;4953561;28;20058;-48
2021/01/20 12:12:33;;;;;;;2.80;1.40;;;20.60;38.60;;;;;;4952788;28;20028;-46
2021/01/20 12:14:59;;;;;;;5.10;1.50;;;20.60;41.70;;;;;;4955697;28;20121;-46
2021/01/20 12:17:25;;;;;;;3.97;1.85;;;20.70;41.80;;;;;;4949416;28;20031;-49
2021/01/20 12:19:51;;;;;;;5.15;1.55;;;20.70;41.50;;;;;;4950679;28;20106;-46
2021/01/20 12:22:17;;;;;;;2.58;1.33;;;20.80;41.10;;;;;;4953747;29;20031;-47
2021/01/20 12:24:43;;;;;;;4.63;1.50;;;20.80;41.70;;;;;;4952428;28;20046;-46
2021/01/20 12:27:08;;;;;;;6.35;1.45;;;20.80;41.70;;;;;;4949789;28;20384;-46
2021/01/20 12:29:34;;;;;;;4.75;1.40;;;20.90;41.80;;;;;;4949853;28;20039;-47
2021/01/20 12:32:00;;;;;;;4.13;1.33;;;20.90;42.00;;;;;;4952043;28;20042;-47
2021/01/20 12:34:25;;;;;;;4.20;1.40;;;20.90;42.10;;;;;;4952852;29;20027;-47
2021/01/20 12:36:51;;;;;;;3.67;1.42;;;20.90;41.80;;;;;;4946574;28;20023;-48
2021/01/20 12:39:17;;;;;;;5.80;1.50;;;20.80;40.50;;;;;;4952815;28;20118;-47
2021/01/20 12:41:42;;;;;;;1.92;1.40;;;20.80;40.90;;;;;;4952403;28;20039;-46
2021/01/20 12:44:08;;;;;;;6.00;2.10;;;20.70;40.70;;;;;;4952893;29;20580;-46
2021/01/20 12:46:34;;;;;;;10.40;3.30;;;20.60;40.00;;;;;;4957464;28;20122;-49
2021/01/20 12:49:01;;;;;;;17.55;4.47;;;20.60;40.40;;;;;;4951689;28;20035;-48
2021/01/20 12:51:26;;;;;;;18.25;4.75;;;20.60;40.90;;;;;;4945522;28;20042;-50
2021/01/20 12:53:52;;;;;;;25.02;6.28;;;20.70;41.30;;;;;;4952207;28;20429;-46
2021/01/20 12:56:18;;;;;;;15.10;4.43;;;20.70;41.30;;;;;;4945142;28;20023;-45